Weather

Vsebine: Paragliding sitesCurrent conditionsCurrent conditions (amateur)Radar rainfal imageMeteo stationsPanoramic cameras


Current conditions (official report)

Show amateur stations

Click on a specific station to see its location

Location Weather conditions Temperature Wind Air pressure Last updated Geopedia
    °C direction speed (m/s) gusts (m/s) hPa    
Babno Polje 4   - - 2017-10-23 07:21:00
Babno Polje (756 m) 5   - - 2016-01-12 07:40:00
Bilje Nova Gorica 7   2 2 1011 2017-10-23 07:23:00
Bilje pri Novi Gorici 8   1 - 1011 2017-10-23 07:22:00
Blegoš 2   - - 2017-10-23 07:23:00
Bohinjska Češnjica 3   - - 2017-10-23 07:21:00
Boršt Gorenja vas 4   1 1 1011 2017-10-23 07:09:00
Bovec 9   3 7 1011 2017-10-23 07:09:00
Breginj 4   - - 2017-10-23 07:21:00
Bukovski vrh 5   - - 2017-10-23 07:23:00
Celje 6   1 - 1011 2017-10-23 07:22:00
Cerkniško jezero 4   - - 2017-10-23 07:23:00
Črnomelj 8   - - 1012 2017-10-23 07:22:00
Davča 7   - - 2017-10-23 07:21:00
Dobliče Črnomelj 8   - 1 1012 2017-10-23 07:05:00
Dolenje Ajdovščina 8   - 1 2017-10-23 07:08:00
Gačnik 6   - - 2017-10-23 07:21:00
Godnje 7   1 2 2017-10-23 07:23:00
Gornji Grad 6   - - 2017-10-23 07:21:00
Hočko Pohorje 7   - - 2017-10-23 07:23:00
Hrastnik 6   - - 1011 2017-10-23 07:07:00
Idrija 6   - - 2017-10-23 07:21:00
Ilirska Bistrica 7   2 5 2017-10-23 07:07:00
Iskrba 4   - 1 2017-10-23 07:21:00
Jeronim 4   - - 2017-10-23 07:21:00
Jeruzalem 7   - - 2017-10-23 07:23:00
Jezersko 3   - - 2017-10-23 07:23:00
Juršče   - - 2016-09-13 14:33:00
Kamniška Bistrica 5   - - 2017-10-23 07:21:00
Kanin -4   - - 2017-10-23 07:23:00
Katarina nad Ljubljano 9   3 - 2017-10-22 14:32:00
Kočevje 5   - - 2017-10-23 07:22:00
Koper Kapitanija 13   3 6 1012 2017-10-23 07:09:00
Korensko sedlo 1   - - 2017-10-23 07:23:00
Kraj. park Goričko 7   3 7 2017-10-23 07:05:00
Kranj 6   - - 2017-10-23 07:23:00
Kredarica -6   17 28 2017-10-23 07:23:00
Krn 5   - - 2017-10-23 06:56:00
Krško 7   2 3 1011 2017-10-23 07:17:00
Krvavec -1   6 16 2017-10-23 07:23:00
Kubed 7   - - 2017-10-23 07:23:00
Kum 3   5 10 2017-10-23 07:23:00
Lendava 9   1 3 1010 2017-10-23 07:09:00
Let. E. Rusjana Maribor 7   2 2 1011 2017-10-23 07:03:00
Let. J. Pučnika Lj. 0   2 3 1011 2015-11-26 11:03:00
Let. J. Pučnika Ljubljana 5   2 3 1012 2017-10-23 07:23:00
Letališče Cerklje ob Krki 7   2 - 1011 2017-10-23 07:22:00
Letališče Edvarda Rusjana Maribor 7   2 - 1011 2017-10-23 07:22:00
Letališče Jožeta Pučnika Ljubljana 5   1 - 1012 2017-10-23 07:22:00
Letališče Lesce 10   3 - 1010 2017-10-23 07:22:00
Letališče Portorož 12   1 - 1011 2017-10-23 07:22:00
Lisca 3   3 7 2017-10-23 07:23:00
Lisca (943 m) 9   5 12 2016-03-29 14:02:00
Litija 7   - - 2017-10-23 07:23:00
Ljubljana 7   1 - 1012 2017-10-23 07:22:00
Logarska dolina 3   - - 2017-10-23 07:23:00
Logatec 4   - - 2017-10-23 07:23:00
Luka Koper 11   1 2 2017-10-23 07:08:00
Malkovec 6   1 2 1012 2017-10-23 07:09:00
Maribor 7   3 6 2017-10-23 07:23:00
Maribor - Tabor 8   2 4 2017-10-23 07:08:00
Marinča vas 6   - - 2017-10-23 07:23:00
Metlika 7   - - 2017-10-23 07:21:00
Mežica 5   - - 2017-10-23 07:23:00
Miklavž na Gorjancih 3   - - 2017-10-23 07:21:00
Murska Sobota 8   2 - 1010 2017-10-23 07:22:00
Nanos 2   3 6 2017-10-23 07:21:00
Nova Gorica 8   1 1 2017-10-23 07:07:00
Nova vas - Bloke 4   - - 2017-10-23 07:21:00
Novo mesto 7   1 2 1012 2017-10-23 07:23:00
Osilnica 5   - - 2017-10-23 07:23:00
Otlica 5   1 2 2017-10-23 07:03:00
Otlica (965 m) 7   4 7 2016-03-31 08:24:00
Park Škocj. jame 18   2 5 1009 2017-09-16 13:32:00
Pasja ravan 5   3 6 2017-10-23 07:21:00
Pavličevo sedlo 0   - - 2017-10-23 07:23:00
Piran-ocean. boja 14   6 8 2017-10-23 07:10:00
Planina pod Golico 6   - - 2017-10-23 07:23:00
Podčetrtek 7   - - 1011 2017-10-23 07:04:00
Podnanos 7   2 3 2017-10-23 07:21:00
Postojna 5   - 1 1012 2017-10-23 07:23:00
Predel 1   - - 2017-10-23 07:21:00
Ptuj 7   2 3 2017-10-23 07:23:00
Ptuj - Terme -2   2 3 2017-01-19 14:35:00
Radegunda 4   - - 2017-10-23 07:21:00
Radenci 8   - - 1011 2017-10-23 07:09:00
Rateče 0   - - 2017-10-23 07:22:00
Rateče (864 m) 0   - - 2017-10-23 07:05:00
Ratitovec -1   7 10 2017-10-23 07:23:00
Ravne na Koroškem 5   1 4 2017-10-23 07:09:00
Rogaška Slatina 6   1 1 2017-10-23 07:21:00
Rogla -1   7 12 2017-10-23 07:21:00
Rogla (1492 m) -11   4 7 2016-01-18 10:32:00
Rudno polje 4   5 11 2017-10-23 07:21:00
Rudno polje (1347 m) -2   1 3 2015-10-20 07:36:00
Sevno 5   - - 2017-10-23 07:21:00
Slavnik 4   4 8 2017-10-23 07:23:00
Slovenj Gradec 6   3 - 2017-10-23 07:22:00
Slovenske Konjice 7   - - 2017-10-23 07:23:00
Sviščaki 2   5 8 2017-10-23 07:23:00
Šebreljski vrh 5   - - 2017-10-23 07:21:00
Šmartno pri Slovenj Gradcu 5   2 5 2017-10-23 07:21:00
Tatre 5   - - 2017-10-23 07:21:00
Tolmin - Volče 6   1 1 2017-10-23 07:22:00
Topol 6   - - 2017-10-23 07:21:00
Trebnje 6   - - 2017-10-23 07:23:00
Trije Kralji na Pohorju 1   - - 2017-10-23 07:21:00
Trojane - Limovce 4   3 4 1012 2017-10-23 07:21:00
Uršlja gora -2   5 16 2017-10-23 07:21:00
Vedrijan 8   - - 2017-10-23 07:21:00
Velenje 8   - - 2017-10-23 07:23:00
Velike Lašče 5   2 4 2017-10-23 07:21:00
Vogel 1   2 6 2017-10-23 07:23:00
Vojsko 8   1 - 2017-10-22 14:32:00
Vrbanski plato -2   2 3 2016-12-07 11:23:00
Vrhnika 6   2 3 2017-10-23 07:21:00
Vršič -1   - - 2017-10-23 07:21:00
Zadlog 3   - - 2017-10-23 07:23:00
Zelenica 0   - - 2017-10-23 07:21:00
Zgornja Kapla 3   3 4 2017-10-23 07:21:00
Zgornja Radovna 8   - - 2017-10-23 07:23:00
Zgornja Sorica 6   - - 2017-10-23 07:21:00
Source: Slovenian Environmental Agency, meteo.si